Omaha, Nebraska
Current Conditions -  °F | °C
As of 5:52 AM on Friday 24 Oct 2014 (Local Time) from KOMA Reporting Station
Broken Clouds Broken Clouds  
Wind Chill: 56°   Ceiling: 25000
Heat Index: 56°   Visibility: 7mi
Dew Point: 54°   Wind: 10mph
Humidity: 93%   Direction: 160°SSE
Pressure: 29.95"   Gusts: NA
Location:  41.26°N, 95.94°W
Report Text: KOMA 241052Z 16009KT 7SM BKN250 13/12 A2995 RMK AO2 SLP140 T01330122
Loading
Personal Weather Stations






























Interactive Weather Map
Tropical Storm Tracking
New forecast layout! Learn more

10-Day Weather Forecast

Advertisements
Track Severe Weather on mobile